createdAt,value
2022-11-19T00:02:22.346Z,16.13
2022-11-19T00:05:06.277Z,26.90
2022-11-19T00:07:50.066Z,21.58
2022-11-19T00:10:35.555Z,17.27
2022-11-19T00:13:18.302Z,21.13
2022-11-19T00:16:05.138Z,18.70
2022-11-19T00:18:48.855Z,17.07
2022-11-19T00:21:32.890Z,17.80
2022-11-19T00:24:16.913Z,19.17
2022-11-19T00:27:00.960Z,17.10
2022-11-19T00:29:44.831Z,17.67
2022-11-19T00:32:31.082Z,15.57
2022-11-19T00:35:16.235Z,20.03
2022-11-19T00:38:00.055Z,18.67
2022-11-19T00:40:43.963Z,18.03
2022-11-19T00:43:53.852Z,17.67
2022-11-19T00:46:37.543Z,20.43
2022-11-19T00:49:22.699Z,20.27
2022-11-19T00:52:06.888Z,20.13
2022-11-19T00:54:50.679Z,12.67
2022-11-19T00:57:34.348Z,16.03
2022-11-19T01:00:18.857Z,18.20
2022-11-19T01:03:02.639Z,20.90
2022-11-19T01:05:47.809Z,22.30
2022-11-19T01:08:31.558Z,18.33
2022-11-19T01:11:18.461Z,19.67
2022-11-19T01:14:03.377Z,24.40
2022-11-19T01:16:47.453Z,23.73
2022-11-19T01:19:31.520Z,17.50
2022-11-19T01:22:17.024Z,21.60
2022-11-19T01:25:01.031Z,14.03
2022-11-19T01:27:45.242Z,14.97
2022-11-19T01:30:29.253Z,12.13
2022-11-19T01:33:13.446Z,14.00
2022-11-19T01:36:01.214Z,13.87
2022-11-19T01:38:50.684Z,13.13
2022-11-19T01:41:35.037Z,14.97
2022-11-19T01:45:01.621Z,11.33
2022-11-19T01:47:47.364Z,11.63
2022-11-19T01:50:34.092Z,15.90
2022-11-19T01:53:19.363Z,17.23
2022-11-19T01:56:07.905Z,16.93
2022-11-19T01:58:56.409Z,15.57
2022-11-19T02:01:40.176Z,18.53
2022-11-19T02:04:25.257Z,19.07
2022-11-19T02:07:12.962Z,16.83
2022-11-19T02:09:57.043Z,14.47
2022-11-19T02:12:49.402Z,17.97
2022-11-19T02:16:00.880Z,13.13
2022-11-19T02:18:53.329Z,14.07
2022-11-19T02:21:43.105Z,16.50
2022-11-19T02:24:43.330Z,15.10
2022-11-19T02:28:08.172Z,18.97
2022-11-19T02:30:55.668Z,15.97
2022-11-19T02:33:46.492Z,13.97
2022-11-19T02:36:37.169Z,13.50
2022-11-19T02:39:27.203Z,13.40
2022-11-19T02:42:19.661Z,10.87
2022-11-19T02:45:08.305Z,11.13
2022-11-19T02:47:56.339Z,14.93
2022-11-19T02:50:46.132Z,15.00
2022-11-19T02:53:30.342Z,11.80
2022-11-19T02:56:17.764Z,9.70
2022-11-19T02:59:20.308Z,15.23
2022-11-19T03:02:23.912Z,13.53
2022-11-19T03:05:14.645Z,10.73
2022-11-19T03:07:59.248Z,14.13
2022-11-19T03:10:49.413Z,13.70
2022-11-19T03:13:59.965Z,13.23
2022-11-19T03:16:50.706Z,10.20
2022-11-19T03:19:38.522Z,9.53
2022-11-19T03:22:28.190Z,9.10
2022-11-19T03:25:17.615Z,9.77
2022-11-19T03:28:05.969Z,4.47
2022-11-19T03:30:52.517Z,3.77
2022-11-19T03:33:41.362Z,2.50
2022-11-19T03:36:28.124Z,3.13
2022-11-19T03:39:15.586Z,2.77
2022-11-19T03:41:59.651Z,2.67
2022-11-19T03:44:49.111Z,2.03
2022-11-19T03:47:36.762Z,2.63
2022-11-19T03:50:25.250Z,2.20
2022-11-19T03:53:09.188Z,2.20
2022-11-19T03:55:59.656Z,1.67
2022-11-19T03:58:46.627Z,1.70
2022-11-19T04:01:31.296Z,3.03
2022-11-19T04:04:32.812Z,1.93
2022-11-19T04:07:18.514Z,1.93
2022-11-19T04:10:02.300Z,1.90
2022-11-19T04:12:48.539Z,1.70
2022-11-19T04:15:32.377Z,1.50
2022-11-19T04:18:16.297Z,2.30
2022-11-19T04:21:00.380Z,1.63
2022-11-19T04:23:44.372Z,2.80
2022-11-19T04:26:28.451Z,1.60
2022-11-19T04:29:13.822Z,1.70
2022-11-19T04:31:57.684Z,2.03
2022-11-19T04:34:41.678Z,1.87
2022-11-19T04:37:25.664Z,4.10
2022-11-19T04:40:10.840Z,1.97
2022-11-19T04:42:54.772Z,1.97
2022-11-19T04:45:40.275Z,1.90
2022-11-19T04:48:24.242Z,2.33
2022-11-19T04:51:09.608Z,1.93
2022-11-19T04:53:53.791Z,2.20
2022-11-19T04:56:38.558Z,1.87
2022-11-19T04:59:22.864Z,2.30
2022-11-19T05:02:08.434Z,1.80
2022-11-19T05:04:52.371Z,1.77
2022-11-19T05:07:36.361Z,2.67
2022-11-19T05:10:20.467Z,2.20
2022-11-19T05:13:04.465Z,1.70
2022-11-19T05:15:48.534Z,2.17
2022-11-19T05:18:34.104Z,2.07
2022-11-19T05:21:18.047Z,2.07
2022-11-19T05:24:02.177Z,2.30
2022-11-19T05:26:46.188Z,2.47
2022-11-19T05:29:30.125Z,2.10
2022-11-19T05:32:14.087Z,2.47
2022-11-19T05:34:59.640Z,2.30
2022-11-19T05:37:43.582Z,2.40
2022-11-19T05:40:27.877Z,3.43
2022-11-19T05:43:11.907Z,1.93
2022-11-19T05:45:55.880Z,2.30
2022-11-19T05:48:39.934Z,2.77
2022-11-19T05:51:25.072Z,2.73
2022-11-19T05:54:08.968Z,2.60
2022-11-19T05:56:52.824Z,2.63
2022-11-19T05:59:42.251Z,2.70
2022-11-19T06:02:27.418Z,2.37
2022-11-19T06:05:12.327Z,3.20
2022-11-19T06:07:57.391Z,3.30
2022-11-19T06:10:41.126Z,2.90
2022-11-19T06:13:24.872Z,2.67
2022-11-19T06:16:08.978Z,3.30
2022-11-19T06:18:52.724Z,3.70
2022-11-19T06:21:36.651Z,2.60
2022-11-19T06:24:22.644Z,2.90
2022-11-19T06:27:06.401Z,3.13
2022-11-19T06:29:55.018Z,3.50
2022-11-19T06:32:39.909Z,2.90
2022-11-19T06:35:23.646Z,3.00
2022-11-19T06:38:07.308Z,3.70
2022-11-19T06:40:52.625Z,3.33
2022-11-19T06:43:36.595Z,3.10
2022-11-19T06:46:20.610Z,3.40
2022-11-19T06:49:05.986Z,3.63
2022-11-19T06:51:49.905Z,3.47
2022-11-19T06:54:35.791Z,2.92
2022-11-19T06:57:23.249Z,2.83
2022-11-19T07:00:08.569Z,2.92
2022-11-19T07:02:52.629Z,3.10
2022-11-19T07:05:36.734Z,2.80
2022-11-19T07:08:20.834Z,3.27
2022-11-19T07:11:26.119Z,2.93
2022-11-19T07:14:11.844Z,2.90
2022-11-19T07:16:57.573Z,3.10
2022-11-19T07:19:41.727Z,3.15
2022-11-19T07:22:25.623Z,4.27
2022-11-19T07:25:12.743Z,2.43
2022-11-19T07:27:56.644Z,2.80
2022-11-19T07:30:42.209Z,3.20
2022-11-19T07:33:26.241Z,2.70
2022-11-19T07:36:17.009Z,3.38
2022-11-19T07:39:02.413Z,3.25
2022-11-19T07:42:03.933Z,3.43
2022-11-19T07:44:54.646Z,2.72
2022-11-19T07:47:40.502Z,2.23
2022-11-19T07:50:24.490Z,2.45
2022-11-19T07:53:08.622Z,2.50
2022-11-19T07:55:52.650Z,2.15
2022-11-19T07:58:36.622Z,2.53
2022-11-19T08:01:22.670Z,2.20
2022-11-19T08:04:08.118Z,2.38
2022-11-19T08:06:52.204Z,2.25
2022-11-19T08:09:36.151Z,2.00
2022-11-19T08:12:19.906Z,2.25
2022-11-19T08:15:03.670Z,2.10
2022-11-19T08:18:04.718Z,2.90
2022-11-19T08:20:49.788Z,2.40
2022-11-19T08:23:34.253Z,3.08
2022-11-19T08:26:17.892Z,1.77
2022-11-19T08:29:01.615Z,1.95
2022-11-19T08:31:47.750Z,2.15
2022-11-19T08:34:32.984Z,2.10
2022-11-19T08:37:18.261Z,2.13
2022-11-19T08:40:02.123Z,1.95
2022-11-19T08:43:00.974Z,2.30
2022-11-19T08:45:53.850Z,2.15
2022-11-19T08:48:37.672Z,2.30
2022-11-19T08:51:21.400Z,2.55
2022-11-19T08:54:06.811Z,2.55
2022-11-19T08:56:50.617Z,2.08
2022-11-19T08:59:34.638Z,2.88
2022-11-19T09:02:18.405Z,2.00
2022-11-19T09:05:02.224Z,2.10
2022-11-19T09:07:46.631Z,2.40
2022-11-19T09:10:31.853Z,2.17
2022-11-19T09:13:15.665Z,2.67
2022-11-19T09:15:59.444Z,2.38
2022-11-19T09:18:43.627Z,2.75
2022-11-19T09:21:27.302Z,2.17
2022-11-19T09:24:11.056Z,2.00
2022-11-19T09:26:59.597Z,2.17
2022-11-19T09:29:46.270Z,2.13
2022-11-19T09:32:30.274Z,2.03
2022-11-19T09:35:14.114Z,1.95
2022-11-19T09:37:57.896Z,2.63
2022-11-19T09:40:46.223Z,2.30
2022-11-19T09:43:45.645Z,2.80
2022-11-19T09:46:35.043Z,4.03
2022-11-19T09:49:25.964Z,3.35
2022-11-19T09:52:15.221Z,3.10
2022-11-19T09:54:59.119Z,2.88
2022-11-19T09:57:48.926Z,3.15
2022-11-19T10:00:34.633Z,7.90
2022-11-19T10:03:22.108Z,28.30
2022-11-19T10:06:24.210Z,10.07
2022-11-19T10:09:26.197Z,4.80
2022-11-19T10:12:23.205Z,3.42
2022-11-19T10:15:17.424Z,3.28
2022-11-19T10:18:13.497Z,3.30
2022-11-19T10:21:05.906Z,3.45
2022-11-19T10:23:54.733Z,4.40
2022-11-19T10:26:41.726Z,2.97
2022-11-19T10:29:29.559Z,2.40
2022-11-19T10:32:24.116Z,2.53
2022-11-19T10:35:17.648Z,2.97
2022-11-19T10:38:04.183Z,4.25
2022-11-19T10:40:53.167Z,6.20
2022-11-19T10:43:46.260Z,5.13
2022-11-19T10:46:30.298Z,4.88
2022-11-19T10:49:13.977Z,4.47
2022-11-19T10:51:59.312Z,6.07
2022-11-19T10:54:43.442Z,5.30
2022-11-19T10:57:31.182Z,4.95
2022-11-19T11:00:16.604Z,5.10
2022-11-19T11:03:03.897Z,5.55
2022-11-19T11:06:06.891Z,7.45
2022-11-19T11:08:54.103Z,5.72
2022-11-19T11:11:51.722Z,5.55
2022-11-19T11:14:58.687Z,5.75
2022-11-19T11:17:44.759Z,4.82
2022-11-19T11:20:30.011Z,3.97
2022-11-19T11:23:17.247Z,3.83
2022-11-19T11:26:08.183Z,4.72
2022-11-19T11:28:58.450Z,4.78
2022-11-19T11:31:43.708Z,4.35
2022-11-19T11:34:32.556Z,4.10
2022-11-19T11:37:16.744Z,6.95
2022-11-19T11:40:01.456Z,4.13
2022-11-19T11:42:48.333Z,8.68
2022-11-19T11:45:34.412Z,5.13
2022-11-19T11:48:23.034Z,8.32
2022-11-19T11:51:07.255Z,5.50
2022-11-19T11:54:05.345Z,3.97
2022-11-19T11:56:49.658Z,3.95
2022-11-19T11:59:35.021Z,4.22
2022-11-19T12:02:27.317Z,3.95
2022-11-19T12:05:19.483Z,3.85
2022-11-19T12:08:06.711Z,3.75
2022-11-19T12:10:57.887Z,3.30
2022-11-19T12:13:55.114Z,3.72
2022-11-19T12:16:48.020Z,4.60
2022-11-19T12:19:46.723Z,6.18
2022-11-19T12:22:43.464Z,4.50
2022-11-19T12:25:33.404Z,3.67
2022-11-19T12:28:41.907Z,3.83
2022-11-19T12:31:42.570Z,3.08
2022-11-19T12:34:53.527Z,3.40
2022-11-19T12:37:58.507Z,4.15
2022-11-19T12:40:52.171Z,2.45
2022-11-19T12:43:55.150Z,3.65
2022-11-19T12:46:50.032Z,4.15
2022-11-19T12:49:56.269Z,3.33
2022-11-19T12:53:00.106Z,3.00
2022-11-19T12:55:53.218Z,3.50
2022-11-19T12:58:46.612Z,8.55
2022-11-19T13:01:35.655Z,3.20
2022-11-19T13:04:24.818Z,2.95
2022-11-19T13:07:14.707Z,3.95
2022-11-19T13:10:04.380Z,5.50
2022-11-19T13:12:53.083Z,4.95
2022-11-19T13:15:41.260Z,4.07
2022-11-19T13:18:28.843Z,5.75
2022-11-19T13:21:22.490Z,3.00
2022-11-19T13:24:25.471Z,2.80
2022-11-19T13:27:20.208Z,3.38
2022-11-19T13:30:15.316Z,4.72
2022-11-19T13:33:06.592Z,4.18
2022-11-19T13:35:59.470Z,4.10
2022-11-19T13:38:49.420Z,4.88
2022-11-19T13:42:00.450Z,3.50
2022-11-19T13:44:43.556Z,3.42
2022-11-19T13:47:32.391Z,6.13
2022-11-19T13:50:20.402Z,8.25
2022-11-19T13:53:07.787Z,7.07
2022-11-19T13:55:57.187Z,7.15
2022-11-19T13:58:46.988Z,18.65
2022-11-19T14:01:49.615Z,6.70
2022-11-19T14:04:59.540Z,8.07
2022-11-19T14:07:57.359Z,10.57
2022-11-19T14:10:46.787Z,9.77
2022-11-19T14:13:52.011Z,7.45
2022-11-19T14:17:03.503Z,20.15
2022-11-19T14:20:08.817Z,19.92
2022-11-19T14:23:13.746Z,18.05
2022-11-19T14:26:14.998Z,10.20
2022-11-19T14:29:00.154Z,7.63
2022-11-19T14:32:17.111Z,13.15
2022-11-19T14:35:42.277Z,11.00
2022-11-19T14:38:39.515Z,13.80
2022-11-19T14:41:30.263Z,16.20
2022-11-19T14:44:33.752Z,12.85
2022-11-19T14:47:34.443Z,22.17
2022-11-19T14:50:27.266Z,12.63
2022-11-19T14:53:20.632Z,15.30
2022-11-19T14:56:13.521Z,11.10
2022-11-19T14:59:08.749Z,12.77
2022-11-19T15:01:59.194Z,11.20
2022-11-19T15:04:52.481Z,15.13
2022-11-19T15:07:40.058Z,15.27
2022-11-19T15:10:47.345Z,13.40
2022-11-19T15:13:32.646Z,16.83
2022-11-19T15:16:19.507Z,13.50
2022-11-19T15:19:33.915Z,14.00
2022-11-19T15:22:34.271Z,8.07
2022-11-19T15:25:30.535Z,13.50
2022-11-19T15:28:26.895Z,13.07
2022-11-19T15:31:27.188Z,15.20
2022-11-19T15:35:04.084Z,9.57
2022-11-19T15:37:52.548Z,6.72
2022-11-19T15:40:36.768Z,5.47
2022-11-19T15:43:28.512Z,5.65
2022-11-19T15:46:16.154Z,5.72
2022-11-19T15:49:07.544Z,6.78
2022-11-19T15:52:07.369Z,4.85
2022-11-19T15:54:52.543Z,5.13
2022-11-19T15:57:43.224Z,7.90
2022-11-19T16:00:27.643Z,7.65
2022-11-19T16:03:12.015Z,6.35
2022-11-19T16:06:04.774Z,5.15
2022-11-19T16:08:52.920Z,6.30
2022-11-19T16:11:56.734Z,6.20
2022-11-19T16:14:58.104Z,6.40
2022-11-19T16:17:47.647Z,5.72
2022-11-19T16:20:31.447Z,5.82
2022-11-19T16:23:19.184Z,8.38
2022-11-19T16:26:03.737Z,10.68
2022-11-19T16:28:49.088Z,12.10
2022-11-19T16:31:33.040Z,13.43
2022-11-19T16:34:23.548Z,10.77
2022-11-19T16:37:07.361Z,8.88
2022-11-19T16:39:53.061Z,9.38
2022-11-19T16:42:37.835Z,9.88
2022-11-19T16:45:25.781Z,6.82
2022-11-19T16:48:59.620Z,7.93
2022-11-19T16:51:53.317Z,7.50
2022-11-19T16:54:46.762Z,7.05
2022-11-19T16:57:31.763Z,6.82
2022-11-19T17:00:18.474Z,7.03
2022-11-19T17:03:16.858Z,9.27
2022-11-19T17:06:00.765Z,7.40
2022-11-19T17:08:56.782Z,9.57
2022-11-19T17:12:09.381Z,8.80
2022-11-19T17:14:59.137Z,11.43
2022-11-19T17:17:43.556Z,14.73
2022-11-19T17:20:56.447Z,14.35
2022-11-19T17:23:49.106Z,18.67
2022-11-19T17:26:32.935Z,9.50
2022-11-19T17:29:23.357Z,6.90
2022-11-19T17:32:07.194Z,6.80
2022-11-19T17:34:55.270Z,6.63
2022-11-19T17:37:40.333Z,9.55
2022-11-19T17:40:24.148Z,9.88
2022-11-19T17:43:29.263Z,6.40
2022-11-19T17:46:13.045Z,11.65
2022-11-19T17:48:57.036Z,8.05
2022-11-19T17:51:40.833Z,10.55
2022-11-19T17:54:26.164Z,10.30
2022-11-19T17:57:10.108Z,8.43
2022-11-19T17:59:53.908Z,10.50
2022-11-19T18:02:37.871Z,7.03
2022-11-19T18:05:24.238Z,6.88
2022-11-19T18:08:08.031Z,12.20
2022-11-19T18:10:53.828Z,10.13
2022-11-19T18:13:38.527Z,7.03
2022-11-19T18:16:24.283Z,8.85
2022-11-19T18:19:13.436Z,11.70
2022-11-19T18:21:57.856Z,6.10
2022-11-19T18:24:42.040Z,6.45
2022-11-19T18:27:27.724Z,6.75
2022-11-19T18:30:13.116Z,7.10
2022-11-19T18:32:57.096Z,6.85
2022-11-19T18:35:40.959Z,8.83
2022-11-19T18:38:25.065Z,8.93
2022-11-19T18:41:11.626Z,9.68
2022-11-19T18:44:14.069Z,5.63
2022-11-19T18:46:58.014Z,6.50
2022-11-19T18:49:42.577Z,8.45
2022-11-19T18:52:26.426Z,10.48
2022-11-19T18:55:11.272Z,9.63
2022-11-19T18:57:56.427Z,8.52
2022-11-19T19:00:42.637Z,8.60
2022-11-19T19:03:26.597Z,8.00
2022-11-19T19:06:10.674Z,5.30
2022-11-19T19:08:54.665Z,8.57
2022-11-19T19:11:56.169Z,4.57
2022-11-19T19:14:40.168Z,10.00
2022-11-19T19:17:25.949Z,5.50
2022-11-19T19:20:11.433Z,8.07
2022-11-19T19:22:55.378Z,7.83
2022-11-19T19:25:39.414Z,9.23
2022-11-19T19:28:23.326Z,7.83
2022-11-19T19:31:08.165Z,8.30
2022-11-19T19:33:53.991Z,9.53
2022-11-19T19:36:38.160Z,8.77
2022-11-19T19:39:22.392Z,7.47
2022-11-19T19:42:06.602Z,7.73
2022-11-19T19:44:50.586Z,7.83
2022-11-19T19:47:34.463Z,9.83
2022-11-19T19:50:19.875Z,7.37
2022-11-19T19:53:04.175Z,10.80
2022-11-19T19:55:48.140Z,15.60
2022-11-19T19:58:32.562Z,10.40
2022-11-19T20:01:18.650Z,14.87
2022-11-19T20:04:04.742Z,15.23
2022-11-19T20:06:51.909Z,14.40
2022-11-19T20:09:35.896Z,9.50
2022-11-19T20:12:19.740Z,11.40
2022-11-19T20:15:04.367Z,8.67
2022-11-19T20:17:48.373Z,8.73
2022-11-19T20:20:32.132Z,8.10
2022-11-19T20:23:17.405Z,9.90
2022-11-19T20:26:02.919Z,8.90
2022-11-19T20:28:47.031Z,9.80
2022-11-19T20:31:32.146Z,10.43
2022-11-19T20:34:16.607Z,11.97
2022-11-19T20:37:00.364Z,12.10
2022-11-19T20:39:45.574Z,11.03
2022-11-19T20:43:00.964Z,14.00
2022-11-19T20:45:44.739Z,15.25
2022-11-19T20:48:28.558Z,7.70
2022-11-19T20:51:12.502Z,11.40
2022-11-19T20:53:56.266Z,16.63
2022-11-19T20:56:41.685Z,7.93
2022-11-19T20:59:26.781Z,10.30
2022-11-19T21:02:11.141Z,12.73
2022-11-19T21:04:55.719Z,8.18
2022-11-19T21:07:40.026Z,15.57
2022-11-19T21:10:23.912Z,11.68
2022-11-19T21:13:09.076Z,13.20
2022-11-19T21:15:53.289Z,14.60
2022-11-19T21:18:38.142Z,12.73
2022-11-19T21:21:24.133Z,11.73
2022-11-19T21:24:09.224Z,19.95
2022-11-19T21:26:53.012Z,13.32
2022-11-19T21:29:38.638Z,14.38
2022-11-19T21:32:22.428Z,12.32
2022-11-19T21:35:07.039Z,10.30
2022-11-19T21:37:50.833Z,13.48
2022-11-19T21:40:38.548Z,18.52
2022-11-19T21:43:23.393Z,12.93
2022-11-19T21:46:09.695Z,9.05
2022-11-19T21:48:53.449Z,18.17
2022-11-19T21:51:37.231Z,10.77
2022-11-19T21:54:20.979Z,13.38
2022-11-19T21:57:04.866Z,13.13
2022-11-19T21:59:48.671Z,11.77
2022-11-19T22:02:34.155Z,12.18
2022-11-19T22:05:18.141Z,11.83
2022-11-19T22:08:02.622Z,12.00
2022-11-19T22:10:50.027Z,8.40
2022-11-19T22:13:33.780Z,8.20
2022-11-19T22:16:17.576Z,12.27
2022-11-19T22:19:02.746Z,12.57
2022-11-19T22:21:46.751Z,11.82
2022-11-19T22:24:30.651Z,12.25
2022-11-19T22:27:14.468Z,11.88
2022-11-19T22:30:01.752Z,15.27
2022-11-19T22:32:48.375Z,14.10
2022-11-19T22:35:33.524Z,15.77
2022-11-19T22:38:17.200Z,11.37
2022-11-19T22:41:03.639Z,15.63
2022-11-19T22:43:47.495Z,14.30
2022-11-19T22:46:31.190Z,11.07
2022-11-19T22:49:14.997Z,12.55
2022-11-19T22:52:00.091Z,13.93
2022-11-19T22:54:43.939Z,17.17
2022-11-19T22:57:27.996Z,15.05
2022-11-19T23:00:14.285Z,14.00
2022-11-19T23:02:58.143Z,17.42
2022-11-19T23:05:42.211Z,12.43
2022-11-19T23:08:27.855Z,14.55
2022-11-19T23:11:11.818Z,15.45
2022-11-19T23:13:54.491Z,16.13
2022-11-19T23:16:39.291Z,11.88
2022-11-19T23:19:23.551Z,16.60
2022-11-19T23:22:07.809Z,14.45
2022-11-19T23:24:52.996Z,12.85
2022-11-19T23:27:36.809Z,13.25
2022-11-19T23:30:20.649Z,14.18
2022-11-19T23:33:04.605Z,12.90
2022-11-19T23:35:48.817Z,19.52
2022-11-19T23:38:32.555Z,15.10
2022-11-19T23:41:19.465Z,11.45
2022-11-19T23:44:03.624Z,16.15
2022-11-19T23:46:47.409Z,15.15
2022-11-19T23:49:31.240Z,13.10
2022-11-19T23:52:14.932Z,15.02
2022-11-19T23:54:58.627Z,11.27
2022-11-19T23:57:43.767Z,8.50
